Terminal Aerodrome Forecast
Issued by NWS

Home | Current Version | Previous Version | Text Only | Print | Product List | Glossary On
Versions: 1 2 3 4 5 6 7 8 9 10 11 12 13 14 15 16 17 18 19 20 21 22 23
000
FTUS45 KGJT 302322
TAFDRO
TAF
KDRO 302322Z 3100/3124 24009KT P6SM FEW070 OVC100
     FM310100 36005KT P6SM VCSH BKN080 BKN200
     FM311500 VRB03KT P6SM SCT100
     FM311800 25004KT P6SM SCT200=

USA.gov is the U.S. government's official web portal to all federal, state and local government web resources and services.